Armstrong Mills, Ohio
Current Conditions -  °F | °C
As of 1:53 AM on Monday 22 Dec 2014 (Local Time) from KHLG Reporting Station
Clear Clear  
Wind Chill: 18°   Ceiling: Unl
Heat Index: 25°   Visibility: 8mi
Dew Point: 20°   Wind: 6mph
Humidity: 81%   Direction: 100°E
Pressure: 30.14"   Gusts: NA
Location:  39.9375°N, 80.8976°W
Report Text: KHLG 220653Z AUTO 10005KT 8SM CLR M04/M07 A3014 RMK AO2 SLP220 T10391067
Loading
Personal Weather Stations






























Interactive Weather Map New forecast layout! Learn more

10-Day Weather Forecast

Advertisements
Track Severe Weather on mobile